Time;durP1;ratioP1;P1;durP2;ratioP2;P2;SDS_P1;SDS_P2;PMS_P1;PMS_P2;Temp;Humidity;BMP_temperature;BMP_pressure;BME280_temperature;BME280_humidity;BME280_pressure;Samples;Min_cycle;Max_cycle;Signal;HPM_P1;HPM_P2
2022/07/14 00:02:26;;;;;;;3.52;1.70;;;;;;;14.95;61.76;99348.64;1682315;85;21124;-87
2022/07/14 00:04:53;;;;;;;9.63;1.87;;;;;;;14.94;60.88;99355.66;1660065;85;21026;-87
2022/07/14 00:07:20;;;;;;;4.55;1.90;;;;;;;14.90;60.90;99358.84;1680933;83;21066;-87
2022/07/14 00:09:46;;;;;;;18.02;2.02;;;;;;;14.85;60.55;99356.84;1680870;85;21039;-88
2022/07/14 00:12:13;;;;;;;5.42;2.02;;;;;;;14.82;61.36;99350.43;1651691;86;21028;-86
2022/07/14 00:14:40;;;;;;;4.75;2.05;;;;;;;14.83;61.65;99356.51;1682087;85;21081;-87
2022/07/14 00:17:07;;;;;;;5.85;1.70;;;;;;;14.82;61.84;99362.64;1682393;82;21032;-86
2022/07/14 00:19:34;;;;;;;3.65;1.70;;;;;;;14.78;61.27;99364.55;1724763;80;21061;-88
2022/07/14 00:22:00;;;;;;;3.75;1.70;;;;;;;14.76;62.13;99354.56;1774597;80;21021;-90
2022/07/14 00:24:27;;;;;;;3.90;1.60;;;;;;;14.74;61.73;99352.45;1760957;81;21119;-90
2022/07/14 00:26:54;;;;;;;2.40;1.50;;;;;;;14.71;61.52;99367.83;1773560;80;21019;-91
2022/07/14 00:29:21;;;;;;;4.87;1.65;;;;;;;14.66;61.40;99366.29;1774100;81;21010;-92
2022/07/14 00:31:47;;;;;;;6.03;1.60;;;;;;;14.62;62.40;99362.97;1773642;80;21034;-91
2022/07/14 00:34:14;;;;;;;3.70;2.00;;;;;;;14.59;61.47;99353.91;1774075;81;20977;-89
2022/07/14 00:36:41;;;;;;;6.10;1.75;;;;;;;14.59;61.08;99364.84;1775064;80;21040;-90
2022/07/14 00:39:08;;;;;;;3.37;1.55;;;;;;;14.53;61.32;99365.41;1757737;80;21845;-90
2022/07/14 00:41:34;;;;;;;2.52;1.60;;;;;;;14.52;61.02;99367.65;1764434;81;21050;-88
2022/07/14 00:44:01;;;;;;;2.98;1.40;;;;;;;14.48;61.76;99363.44;1774586;81;21021;-88
2022/07/14 00:46:28;;;;;;;6.28;1.80;;;;;;;14.49;61.49;99352.52;1715749;79;21590;-90
2022/07/14 00:48:55;;;;;;;3.27;1.65;;;;;;;14.46;62.47;99363.95;1705332;82;21002;-91
2022/07/14 00:51:21;;;;;;;2.92;1.62;;;;;;;14.44;61.39;99371.44;1699699;83;21037;-89
2022/07/14 00:53:55;;;;;;;7.20;1.72;;;;;;;14.36;63.35;99366.48;1718129;83;21025;-88
2022/07/14 00:56:22;;;;;;;3.62;1.60;;;;;;;14.32;61.86;99363.14;1728640;82;20998;-86
2022/07/14 00:58:49;;;;;;;2.55;1.42;;;;;;;14.28;63.49;99369.40;1728222;83;21049;-86
2022/07/14 01:01:16;;;;;;;3.00;1.47;;;;;;;14.27;63.75;99364.22;1728139;83;20970;-87
2022/07/14 01:03:43;;;;;;;3.58;1.77;;;;;;;14.25;64.54;99363.41;1728056;83;21054;-86
2022/07/14 01:06:09;;;;;;;3.25;1.70;;;;;;;14.27;63.20;99362.45;1729250;83;21060;-87
2022/07/14 01:08:36;;;;;;;4.72;1.57;;;;;;;14.29;63.74;99371.55;1728119;83;21131;-86
2022/07/14 01:11:07;;;;;;;3.50;1.57;;;;;;;14.28;63.90;99372.44;1728389;83;21002;-86
2022/07/14 01:13:35;;;;;;;6.87;1.50;;;;;;;14.19;64.39;99350.10;1728356;83;21065;-87
2022/07/14 01:16:04;;;;;;;15.35;2.25;;;;;;;14.31;63.90;99369.27;1699868;83;21022;-86
2022/07/14 01:18:31;;;;;;;3.05;1.45;;;;;;;14.31;64.64;99367.96;1728097;83;21066;-87
2022/07/14 01:20:58;;;;;;;2.65;1.60;;;;;;;14.31;64.87;99368.42;1728278;83;20982;-87
2022/07/14 01:23:24;;;;;;;4.47;1.42;;;;;;;14.28;65.58;99366.78;1728341;82;21076;-87
2022/07/14 01:25:51;;;;;;;4.05;1.70;;;;;;;14.32;65.12;99371.42;1753001;82;21000;-87
2022/07/14 01:28:18;;;;;;;4.90;1.45;;;;;;;14.31;65.74;99371.89;1719759;82;21026;-87
2022/07/14 01:30:47;;;;;;;3.72;1.50;;;;;;;14.32;66.10;99376.66;1710847;84;21070;-88
2022/07/14 01:33:13;;;;;;;3.15;1.67;;;;;;;14.28;64.68;99371.14;1710705;84;21014;-87
2022/07/14 01:35:40;;;;;;;3.87;1.47;;;;;;;14.25;63.39;99371.27;1718550;83;21009;-87
2022/07/14 01:38:07;;;;;;;4.37;1.70;;;;;;;14.18;64.27;99363.22;1728239;83;21057;-87
2022/07/14 01:40:34;;;;;;;5.45;1.82;;;;;;;14.17;64.85;99360.23;1728355;83;20971;-87
2022/07/14 01:43:00;;;;;;;8.70;1.90;;;;;;;14.16;64.81;99361.12;1728305;83;21038;-86
2022/07/14 01:45:27;;;;;;;6.12;1.90;;;;;;;14.13;65.70;99363.39;1730340;83;21088;-87
2022/07/14 01:47:53;;;;;;;5.78;2.08;;;;;;;14.07;65.35;99367.08;1736394;81;20992;-87
2022/07/14 01:50:21;;;;;;;8.38;2.20;;;;;;;14.02;65.11;99370.29;1736636;82;21024;-87
2022/07/14 01:52:47;;;;;;;5.15;2.00;;;;;;;13.95;64.90;99374.47;1736576;81;21029;-87
2022/07/14 01:55:14;;;;;;;3.90;1.70;;;;;;;13.86;66.77;99372.58;1736390;82;21037;-87
2022/07/14 01:57:42;;;;;;;4.90;1.62;;;;;;;13.81;63.65;99378.89;1746109;79;21610;-89
2022/07/14 02:00:10;;;;;;;2.95;1.80;;;;;;;13.73;64.24;99376.53;1779229;80;21018;-87
2022/07/14 02:02:38;;;;;;;4.08;1.70;;;;;;;13.67;65.00;99378.05;1779615;80;21053;-87
2022/07/14 02:05:10;;;;;;;7.25;1.70;;;;;;;13.62;65.92;99382.09;1780613;80;21067;-87
2022/07/14 02:07:37;;;;;;;2.83;1.72;;;;;;;13.60;65.37;99377.84;1781064;79;21036;-87
2022/07/14 02:12:52;;;;;;;3.60;1.50;;;;;;;13.51;65.98;99383.77;1779283;79;21030;-87
2022/07/14 02:15:19;;;;;;;3.50;1.70;;;;;;;13.50;65.20;99395.56;1779323;80;21007;-87
2022/07/14 02:17:46;;;;;;;8.30;1.70;;;;;;;13.49;65.00;99387.34;1780666;78;20965;-87
2022/07/14 02:20:13;;;;;;;6.70;1.57;;;;;;;13.48;66.19;99383.00;1780912;78;21040;-86
2022/07/14 02:22:40;;;;;;;2.77;1.40;;;;;;;13.46;66.44;99390.03;1781031;79;21595;-86
2022/07/14 02:25:08;;;;;;;4.67;1.42;;;;;;;13.47;66.59;99391.77;1781189;78;21001;-87
2022/07/14 02:27:35;;;;;;;4.62;1.90;;;;;;;13.43;66.73;99394.04;1780954;78;21012;-86
2022/07/14 02:30:02;;;;;;;8.10;1.70;;;;;;;13.42;68.11;99393.66;1781250;78;21115;-87
2022/07/14 02:32:31;;;;;;;3.67;1.60;;;;;;;13.41;67.27;99397.16;1781070;80;21051;-86
2022/07/14 02:34:58;;;;;;;2.52;1.70;;;;;;;13.43;67.33;99400.56;1779824;80;20975;-86
2022/07/14 02:37:25;;;;;;;3.58;1.65;;;;;;;13.46;67.33;99402.63;1781058;80;21083;-86
2022/07/14 02:39:52;;;;;;;3.00;1.52;;;;;;;13.49;67.84;99401.70;1793947;79;21052;-87
2022/07/14 02:42:19;;;;;;;4.17;1.60;;;;;;;13.50;67.14;99405.55;1779528;81;21003;-87
2022/07/14 02:44:46;;;;;;;2.70;1.50;;;;;;;13.46;67.72;99404.40;1780513;78;20988;-87
2022/07/14 02:47:13;;;;;;;5.20;1.60;;;;;;;13.48;67.98;99402.13;1781001;81;20973;-87
2022/07/14 02:49:40;;;;;;;5.70;1.57;;;;;;;13.48;67.18;99403.44;1780459;81;20971;-87
2022/07/14 02:52:07;;;;;;;3.87;1.55;;;;;;;13.47;67.08;99400.44;1779419;79;21072;-86
2022/07/14 02:54:34;;;;;;;4.28;1.80;;;;;;;13.48;68.08;99405.20;1793660;80;20964;-86
2022/07/14 02:57:01;;;;;;;5.70;1.80;;;;;;;13.47;66.43;99406.97;1794533;79;21015;-87
2022/07/14 02:59:28;;;;;;;6.53;1.75;;;;;;;13.46;67.97;99406.55;1800540;80;20983;-87
2022/07/14 03:01:55;;;;;;;5.62;1.47;;;;;;;13.44;69.12;99407.52;1801728;80;21314;-87
2022/07/14 03:04:22;;;;;;;4.37;1.90;;;;;;;13.44;68.87;99410.12;1801358;80;20967;-86
2022/07/14 03:06:51;;;;;;;2.87;1.67;;;;;;;13.42;68.32;99401.48;1801676;80;21053;-87
2022/07/14 03:09:20;;;;;;;4.75;1.80;;;;;;;13.39;67.64;99402.45;1801555;77;20931;-87
2022/07/14 03:11:47;;;;;;;4.42;1.80;;;;;;;13.38;68.89;99402.48;1798684;80;21052;-87
2022/07/14 03:14:14;;;;;;;7.12;2.00;;;;;;;13.37;68.72;99404.69;1796191;79;21013;-86
2022/07/14 03:16:42;;;;;;;10.15;2.12;;;;;;;13.31;67.63;99404.45;1797325;80;21026;-86
2022/07/14 03:19:10;;;;;;;3.60;1.75;;;;;;;13.26;66.75;99412.38;1801710;80;21010;-87
2022/07/14 03:21:37;;;;;;;5.83;2.08;;;;;;;13.23;66.68;99411.18;1800192;77;21046;-87
2022/07/14 03:24:04;;;;;;;5.00;1.75;;;;;;;13.19;67.16;99413.91;1828308;78;21008;-89
2022/07/14 03:26:32;;;;;;;3.72;1.72;;;;;;;13.14;66.52;99412.75;1777046;76;21114;-87
2022/07/14 03:28:59;;;;;;;4.00;1.82;;;;;;;13.10;67.20;99412.45;1749546;80;21006;-90
2022/07/14 03:31:26;;;;;;;6.40;1.90;;;;;;;13.07;68.31;99415.13;1732180;81;21031;-88
2022/07/14 03:33:53;;;;;;;5.10;1.80;;;;;;;13.05;67.62;99405.19;1719611;82;21180;-90
2022/07/14 03:36:21;;;;;;;4.03;1.80;;;;;;;13.13;68.45;99415.83;1730392;82;21026;-88
2022/07/14 03:38:49;;;;;;;6.62;1.70;;;;;;;13.18;67.95;99420.05;1749871;81;21059;-87
2022/07/14 03:41:18;;;;;;;7.70;1.90;;;;;;;13.24;68.58;99416.79;1674802;86;21131;-89
2022/07/14 03:43:45;;;;;;;7.25;1.90;;;;;;;13.33;69.12;99417.86;1709167;81;21074;-86
2022/07/14 03:46:13;;;;;;;11.85;2.52;;;;;;;13.44;69.29;99419.27;1688650;82;21623;-87
2022/07/14 03:48:41;;;;;;;7.17;2.02;;;;;;;13.53;69.14;99417.22;1737149;82;21238;-86
2022/07/14 03:51:08;;;;;;;4.15;2.08;;;;;;;13.65;69.13;99415.13;1737752;83;21058;-86
2022/07/14 03:53:36;;;;;;;8.63;2.58;;;;;;;13.75;68.21;99413.03;1737619;82;21066;-85
2022/07/14 03:56:04;;;;;;;5.53;1.98;;;;;;;13.81;67.79;99416.32;1741311;81;21036;-86
2022/07/14 03:58:33;;;;;;;2.75;1.70;;;;;;;13.88;68.14;99424.80;1762797;78;21042;-86
2022/07/14 04:01:03;;;;;;;11.80;4.03;;;;;;;13.94;67.31;99419.37;1764822;81;21029;-86
2022/07/14 04:03:30;;;;;;;9.00;3.05;;;;;;;13.95;67.02;99421.09;1755536;81;21117;-86
2022/07/14 04:05:57;;;;;;;6.22;2.58;;;;;;;13.97;67.04;99424.97;1737451;82;21004;-84
2022/07/14 04:08:24;;;;;;;11.53;3.33;;;;;;;13.96;66.78;99422.78;1712541;83;21022;-86
2022/07/14 04:10:55;;;;;;;4.65;2.90;;;;;;;13.97;66.89;99419.28;1756580;81;21083;-86
2022/07/14 04:13:21;;;;;;;6.33;2.35;;;;;;;14.02;66.49;99424.34;1746437;81;21027;-86
2022/07/14 04:15:48;;;;;;;5.92;2.15;;;;;;;14.03;67.30;99422.14;1767991;80;21023;-86
2022/07/14 04:18:15;;;;;;;4.53;2.10;;;;;;;14.10;66.62;99416.63;1764919;81;20969;-85
2022/07/14 04:20:51;;;;;;;7.30;1.98;;;;;;;14.17;67.17;99421.67;1764486;81;21121;-86
2022/07/14 04:23:18;;;;;;;6.58;2.87;;;;;;;14.23;67.15;99424.07;1764482;81;21029;-85
2022/07/14 04:25:45;;;;;;;6.62;2.10;;;;;;;14.27;66.46;99433.52;1737435;82;21110;-87
2022/07/14 04:28:12;;;;;;;5.45;2.20;;;;;;;14.33;66.86;99433.30;1737520;82;21114;-86
2022/07/14 04:30:40;;;;;;;7.85;2.12;;;;;;;14.39;66.42;99431.77;1762232;80;21225;-87
2022/07/14 04:33:07;;;;;;;5.53;2.20;;;;;;;14.47;65.90;99434.97;1767768;77;21055;-87
2022/07/14 04:35:34;;;;;;;5.97;2.17;;;;;;;14.48;65.76;99436.69;1719925;78;21127;-87
2022/07/14 04:38:02;;;;;;;10.30;2.80;;;;;;;14.46;65.61;99434.58;1720321;83;21060;-86
2022/07/14 04:40:30;;;;;;;4.53;2.33;;;;;;;14.45;65.65;99434.16;1720251;84;21040;-86
2022/07/14 04:42:57;;;;;;;9.18;2.35;;;;;;;14.44;66.49;99443.38;1702332;84;21048;-87
2022/07/14 04:45:24;;;;;;;5.90;2.10;;;;;;;14.40;66.72;99439.16;1674790;84;21083;-87
2022/07/14 04:47:53;;;;;;;4.42;2.20;;;;;;;14.44;65.47;99442.94;1702058;83;21066;-86
2022/07/14 04:53:06;;;;;;;5.47;2.08;;;;;;;14.44;66.54;99437.70;1691232;82;21028;-86
2022/07/14 04:55:49;;;;;;;4.08;2.10;;;;;;;14.50;66.64;99440.53;1669238;84;21109;-87
2022/07/14 04:58:26;;;;;;;5.72;2.08;;;;;;;14.60;67.02;99447.17;1702145;81;21040;-85
2022/07/14 05:00:59;;;;;;;3.90;2.08;;;;;;;14.72;66.77;99453.73;1697662;83;21023;-87
2022/07/14 05:03:30;;;;;;;8.05;3.05;;;;;;;14.85;66.63;99445.83;1675602;84;21091;-86
2022/07/14 05:06:03;;;;;;;7.28;2.40;;;;;;;14.93;66.75;99450.79;1674149;84;21038;-87
2022/07/14 05:08:30;;;;;;;8.20;2.22;;;;;;;15.05;66.65;99451.63;1672753;83;21044;-86
2022/07/14 05:11:08;;;;;;;6.70;1.90;;;;;;;15.19;66.62;99456.34;1627893;82;20984;-87
2022/07/14 05:13:35;;;;;;;5.20;1.70;;;;;;;15.36;65.66;99461.38;1651098;84;21095;-87
2022/07/14 05:16:08;;;;;;;5.15;2.12;;;;;;;15.42;66.01;99462.02;1702149;84;21050;-86
2022/07/14 05:18:39;;;;;;;5.40;1.70;;;;;;;15.53;65.15;99462.89;1674367;83;21175;-86
2022/07/14 05:21:09;;;;;;;3.65;1.70;;;;;;;15.59;65.79;99463.95;1674345;84;21083;-88
2022/07/14 05:23:41;;;;;;;4.78;1.87;;;;;;;15.74;64.87;99455.98;1669410;84;21118;-86
2022/07/14 05:26:15;;;;;;;4.67;1.60;;;;;;;15.82;64.81;99463.55;1670238;79;21020;31
2022/07/14 05:28:42;;;;;;;4.72;1.52;;;;;;;15.94;64.57;99460.41;1735887;82;21094;-90
2022/07/14 05:31:09;;;;;;;3.77;1.50;;;;;;;16.05;64.21;99459.48;1719907;83;21011;-89
2022/07/14 05:33:38;;;;;;;4.95;1.60;;;;;;;16.21;63.35;99460.16;1720890;81;21124;-86
2022/07/14 05:36:06;;;;;;;7.25;2.00;;;;;;;16.36;63.39;99458.20;1775011;80;21287;-86
2022/07/14 05:38:33;;;;;;;3.77;1.82;;;;;;;16.54;62.79;99459.17;1775271;79;20989;-87
2022/07/14 05:41:01;;;;;;;3.80;1.57;;;;;;;16.74;61.51;99457.45;1775103;79;20965;-86
2022/07/14 05:43:32;;;;;;;5.58;1.77;;;;;;;16.89;60.92;99451.52;1773849;78;21004;31
2022/07/14 05:46:08;;;;;;;7.22;1.70;;;;;;;17.03;60.35;99459.65;1738639;78;21174;-85
2022/07/14 05:48:37;;;;;;;9.13;1.90;;;;;;;17.22;60.27;99460.10;1738842;78;20964;-86
2022/07/14 05:51:11;;;;;;;3.08;1.32;;;;;;;17.34;59.23;99459.99;1737334;78;21080;-83
2022/07/14 05:53:41;;;;;;;6.72;1.77;;;;;;;17.53;59.65;99457.33;1680697;83;21016;-85
2022/07/14 05:56:13;;;;;;;6.47;1.90;;;;;;;17.67;58.99;99454.44;1705558;83;21015;-86
2022/07/14 05:58:41;;;;;;;6.28;1.80;;;;;;;17.79;58.14;99446.89;1681637;84;21130;-86
2022/07/14 06:01:10;;;;;;;3.95;1.60;;;;;;;17.91;58.45;99452.04;1659862;83;21081;-86
2022/07/14 06:03:38;;;;;;;3.15;1.40;;;;;;;17.97;58.24;99454.36;1631049;86;21013;-86
2022/07/14 06:06:09;;;;;;;4.12;1.45;;;;;;;18.03;58.39;99460.63;1625336;84;21105;-86
2022/07/14 06:08:39;;;;;;;4.30;1.45;;;;;;;18.11;58.05;99463.73;1664426;85;21037;-86
2022/07/14 06:11:07;;;;;;;8.85;1.57;;;;;;;18.20;57.76;99461.08;1671697;84;21033;-85
2022/07/14 06:13:33;;;;;;;3.60;1.60;;;;;;;18.27;57.75;99455.44;1676069;84;21045;-83
2022/07/14 06:16:01;;;;;;;5.60;2.10;;;;;;;18.35;56.38;99456.36;1674958;84;21056;-87
2022/07/14 06:18:30;;;;;;;4.47;1.45;;;;;;;18.39;56.89;99452.64;1653235;86;21073;-86
2022/07/14 06:20:58;;;;;;;4.08;1.42;;;;;;;18.38;55.21;99454.90;1685025;84;21123;-86
2022/07/14 06:23:25;;;;;;;9.55;1.65;;;;;;;18.41;55.82;99452.09;1669163;85;21044;-85
2022/07/14 06:25:53;;;;;;;6.80;2.05;;;;;;;18.38;55.26;99452.27;1666708;86;21133;-86
2022/07/14 06:28:24;;;;;;;11.10;1.90;;;;;;;18.36;55.69;99460.67;1694641;84;21001;-86
2022/07/14 06:30:53;;;;;;;6.87;1.70;;;;;;;18.39;55.53;99457.06;1667245;86;21771;-86
2022/07/14 06:33:27;;;;;;;11.38;1.95;;;;;;;18.39;55.70;99455.27;1653528;84;21026;-86
2022/07/14 06:35:55;;;;;;;6.67;1.82;;;;;;;18.41;55.68;99461.30;1628593;86;21126;-86
2022/07/14 06:38:25;;;;;;;9.40;1.70;;;;;;;18.39;55.51;99459.22;1695614;84;21050;-87
2022/07/14 06:40:56;;;;;;;;;;;;;;;18.40;55.39;99453.48;1655945;85;21199;-87
2022/07/14 06:43:29;;;;;;;4.53;1.57;;;;;;;18.43;55.15;99451.55;1604547;86;20184;-85
2022/07/14 06:45:59;;;;;;;3.62;1.35;;;;;;;18.42;55.15;99447.67;1673688;84;21073;-86
2022/07/14 06:48:27;;;;;;;3.75;1.65;;;;;;;18.46;55.12;99446.58;1680015;83;21038;-84
2022/07/14 06:50:54;;;;;;;4.33;1.60;;;;;;;18.55;55.12;99446.59;1619729;85;20971;-86
2022/07/14 06:53:21;;;;;;;4.47;1.37;;;;;;;18.70;55.08;99448.39;1628690;87;21121;-87
2022/07/14 06:55:52;;;;;;;2.80;1.27;;;;;;;18.85;55.03;99450.72;1655053;85;21096;-88
2022/07/14 06:58:21;;;;;;;4.50;1.75;;;;;;;19.06;53.96;99447.41;1651675;86;21044;-87
2022/07/14 07:00:49;;;;;;;4.58;1.70;;;;;;;19.19;53.41;99450.20;1632562;87;21197;-88
2022/07/14 07:03:25;;;;;;;3.12;1.70;;;;;;;19.32;53.40;99443.78;1584353;88;21183;-87
2022/07/14 07:08:42;;;;;;;4.42;1.57;;;;;;;19.58;52.85;99440.55;1634242;87;21079;-87
2022/07/14 07:11:11;;;;;;;4.83;1.55;;;;;;;19.74;52.42;99432.64;1629431;86;21106;-86
2022/07/14 07:13:38;;;;;;;4.37;1.90;;;;;;;19.89;52.37;99427.41;1655208;86;21051;-87
2022/07/14 07:16:09;;;;;;;4.85;1.67;;;;;;;20.10;51.38;99439.83;1654745;86;21097;-87
2022/07/14 07:18:37;;;;;;;4.80;1.50;;;;;;;20.29;49.35;99425.89;1661015;85;21001;-87
2022/07/14 07:21:06;;;;;;;4.83;1.75;;;;;;;20.46;50.36;99422.25;1655333;86;21027;-87
2022/07/14 07:23:34;;;;;;;6.87;1.75;;;;;;;20.62;49.37;99425.68;1658631;86;21027;-86
2022/07/14 07:26:01;;;;;;;4.85;1.72;;;;;;;20.79;48.24;99416.73;1653761;85;21013;-86
2022/07/14 07:28:28;;;;;;;5.10;1.65;;;;;;;20.95;48.61;99415.75;1662933;85;21008;-88
2022/07/14 07:30:57;;;;;;;7.12;1.20;;;;;;;21.12;48.69;99411.57;1625084;85;21081;-87
2022/07/14 07:33:27;;;;;;;3.75;1.17;;;;;;;21.30;47.86;99411.34;1658466;85;21076;-86
2022/07/14 07:36:00;;;;;;;4.22;1.77;;;;;;;21.44;46.68;99414.81;1641823;87;21167;-86
2022/07/14 07:38:28;;;;;;;3.60;1.70;;;;;;;21.58;47.69;99402.48;1631928;87;21031;-85
2022/07/14 07:44:15;;;;;;;2.27;1.22;;;;;;;21.88;47.49;99407.54;1681138;82;21016;-88
2022/07/14 07:46:44;;;;;;;3.93;1.63;;;;;;;22.08;46.99;99401.38;1693146;81;21155;-87
2022/07/14 07:49:11;;;;;;;4.87;1.50;;;;;;;22.27;46.81;99397.89;1736838;82;21071;-85
2022/07/14 07:51:39;;;;;;;3.67;1.50;;;;;;;22.40;46.71;99392.58;1732579;82;21002;-84
2022/07/14 07:54:11;;;;;;;3.72;1.47;;;;;;;22.54;45.04;99395.14;1738087;80;21015;-86
2022/07/14 07:56:39;;;;;;;4.15;1.40;;;;;;;22.70;45.85;99396.23;1757716;82;21056;-87
2022/07/14 07:59:07;;;;;;;6.70;1.57;;;;;;;22.89;44.20;99400.22;1729318;82;21082;-86
2022/07/14 08:01:34;;;;;;;5.50;1.70;;;;;;;22.98;43.72;99393.79;1743257;82;21069;-86
2022/07/14 08:04:01;;;;;;;3.72;1.55;;;;;;;23.12;43.39;99388.85;1735750;82;21037;-87
2022/07/14 08:06:28;;;;;;;5.08;1.40;;;;;;;23.27;42.81;99390.85;1746105;82;21001;-86
2022/07/14 08:08:57;;;;;;;8.03;1.35;;;;;;;23.45;41.49;99382.02;1723027;82;20996;-86
2022/07/14 08:11:27;;;;;;;4.08;1.50;;;;;;;23.66;41.56;99388.88;1747845;82;21083;-85
2022/07/14 08:13:54;;;;;;;2.60;1.42;;;;;;;23.80;41.55;99387.88;1758510;81;21039;-87
2022/07/14 08:16:21;;;;;;;7.50;1.57;;;;;;;23.92;39.94;99386.11;1741852;82;21043;-86
2022/07/14 08:18:49;;;;;;;3.80;1.40;;;;;;;24.08;40.68;99379.98;1749125;81;21042;-86
2022/07/14 08:21:16;;;;;;;3.85;1.72;;;;;;;24.25;41.05;99379.99;1745672;82;20968;-87
2022/07/14 08:23:43;;;;;;;3.62;1.47;;;;;;;24.44;40.13;99380.75;1722947;82;20974;-86
2022/07/14 08:26:10;;;;;;;6.35;1.40;;;;;;;24.57;38.84;99380.20;1735803;80;21547;-84
2022/07/14 08:28:37;;;;;;;6.20;1.85;;;;;;;24.69;39.87;99371.73;1752239;82;21005;-86
2022/07/14 08:31:04;;;;;;;2.62;1.27;;;;;;;24.86;38.77;99369.54;1756848;82;21066;-86
2022/07/14 08:33:31;;;;;;;4.75;1.35;;;;;;;24.99;38.70;99365.77;1744823;81;21027;-86
2022/07/14 08:35:58;;;;;;;3.10;1.20;;;;;;;25.13;38.21;99363.81;1750577;82;20992;-86
2022/07/14 08:38:25;;;;;;;2.65;1.30;;;;;;;25.24;37.95;99362.47;1725747;82;21009;-86
2022/07/14 08:40:53;;;;;;;4.45;1.35;;;;;;;25.37;36.20;99364.98;1706914;83;21066;-86
2022/07/14 08:43:19;;;;;;;3.70;1.27;;;;;;;25.52;36.79;99350.88;1736654;82;21043;-86
2022/07/14 08:45:50;;;;;;;1.82;1.10;;;;;;;25.65;35.19;99358.20;1741546;81;21064;-86
2022/07/14 08:48:19;;;;;;;3.30;1.30;;;;;;;25.78;35.52;99342.90;1747673;82;20996;-86
2022/07/14 08:50:48;;;;;;;6.78;1.60;;;;;;;25.86;35.58;99342.72;1710460;83;21044;-88
2022/07/14 08:53:18;;;;;;;6.03;1.42;;;;;;;25.97;34.62;99336.87;1702556;81;21133;-85
2022/07/14 08:55:48;;;;;;;5.28;1.42;;;;;;;26.12;34.30;99344.52;1766065;77;20963;-85
2022/07/14 08:58:16;;;;;;;7.72;1.60;;;;;;;26.28;34.96;99335.58;1765792;77;21287;-87
2022/07/14 09:00:43;;;;;;;3.12;1.22;;;;;;;26.43;33.27;99336.55;1765780;77;21048;-84
2022/07/14 09:03:10;;;;;;;4.62;1.40;;;;;;;26.53;34.27;99330.27;1765632;78;21045;-86
2022/07/14 09:05:43;;;;;;;3.30;1.70;;;;;;;26.60;34.19;99326.62;1741989;79;21101;-86
2022/07/14 09:08:12;;;;;;;5.45;1.17;;;;;;;26.67;34.20;99330.41;1742508;78;21046;-85
2022/07/14 09:10:43;;;;;;;1.92;1.27;;;;;;;26.75;34.42;99321.73;1765531;77;20990;-86
2022/07/14 09:13:22;;;;;;;5.70;1.50;;;;;;;26.87;33.77;99317.13;1763572;80;20975;-86
2022/07/14 09:15:52;;;;;;;3.72;1.52;;;;;;;26.93;33.41;99323.25;1739280;81;21086;-86
2022/07/14 09:18:25;;;;;;;7.47;1.20;;;;;;;26.98;32.48;99323.19;1744165;81;21552;-87
2022/07/14 09:20:55;;;;;;;12.30;1.50;;;;;;;27.06;33.10;99314.97;1738289;81;21073;-87
2022/07/14 09:23:31;;;;;;;4.05;1.50;;;;;;;27.10;33.62;99315.91;1772432;80;20915;-84
2022/07/14 09:26:18;;;;;;;5.53;1.45;;;;;;;27.21;34.30;99304.75;1764644;81;21157;-85
2022/07/14 09:28:49;;;;;;;2.55;1.47;;;;;;;27.29;34.28;99303.58;1715428;81;21542;-87
2022/07/14 09:31:29;;;;;;;4.87;1.30;;;;;;;27.35;33.53;99295.02;1757437;81;21054;-85
2022/07/14 09:34:01;;;;;;;4.05;1.57;;;;;;;27.45;34.35;99298.52;1741714;81;20991;-86
2022/07/14 09:36:31;;;;;;;6.92;1.35;;;;;;;27.58;34.22;99302.25;1747832;81;21063;-86
2022/07/14 09:39:12;;;;;;;2.70;1.40;;;;;;;27.72;33.02;99298.29;1711486;81;21939;-86
2022/07/14 09:41:55;;;;;;;4.55;1.62;;;;;;;27.76;33.75;99291.17;1748955;81;20984;-84
2022/07/14 09:44:23;;;;;;;5.17;1.42;;;;;;;27.78;33.87;99291.03;1740396;81;21189;-86
2022/07/14 09:46:57;;;;;;;4.40;1.60;;;;;;;27.84;33.84;99282.44;1765355;81;21068;-86
2022/07/14 09:49:28;;;;;;;5.80;1.50;;;;;;;27.90;32.91;99289.07;1765435;81;21603;-87
2022/07/14 09:52:03;;;;;;;3.80;1.50;;;;;;;27.99;33.50;99280.67;1765136;80;21028;-86
2022/07/14 09:54:49;;;;;;;8.13;1.65;;;;;;;28.12;32.19;99283.86;1787252;79;20974;-86
2022/07/14 09:57:23;;;;;;;4.28;1.70;;;;;;;28.21;31.50;99278.95;1773087;80;22268;-87
2022/07/14 10:00:00;;;;;;;6.65;1.50;;;;;;;28.32;33.05;99271.27;1791333;80;20970;-85
2022/07/14 10:02:30;;;;;;;7.20;1.60;;;;;;;28.45;31.91;99270.91;1787018;78;21019;-87
2022/07/14 10:05:01;;;;;;;4.53;1.60;;;;;;;28.58;32.47;99265.25;1800777;78;20967;-86
2022/07/14 10:07:31;;;;;;;2.25;1.20;;;;;;;28.64;32.32;99261.97;1798901;79;21038;-87
2022/07/14 10:10:05;;;;;;;4.90;1.67;;;;;;;28.81;31.81;99262.50;1798260;80;20999;-84
2022/07/14 10:12:34;;;;;;;4.05;1.60;;;;;;;28.88;32.17;99258.71;1796752;80;21022;-85
2022/07/14 10:15:04;;;;;;;4.35;1.42;;;;;;;29.04;31.63;99259.37;1798822;78;21517;-86
2022/07/14 10:17:34;;;;;;;5.50;1.20;;;;;;;29.15;30.64;99253.83;1798936;78;21097;-86
2022/07/14 10:20:03;;;;;;;4.17;1.50;;;;;;;29.21;31.67;99248.33;1799268;79;21006;-86
2022/07/14 10:22:31;;;;;;;3.60;1.40;;;;;;;29.25;31.42;99239.02;1797947;80;20982;-85
2022/07/14 10:24:57;;;;;;;2.60;0.95;;;;;;;29.38;30.72;99235.42;1785719;79;21028;-85
2022/07/14 10:27:27;;;;;;;5.20;1.42;;;;;;;29.50;29.96;99236.84;1799235;79;20984;-85
2022/07/14 10:30:00;;;;;;;3.20;1.40;;;;;;;29.57;30.75;99230.89;1799502;78;21294;-86
2022/07/14 10:32:40;;;;;;;3.37;1.30;;;;;;;29.64;29.48;99220.70;1797197;80;21022;-85
2022/07/14 10:35:27;;;;;;;2.60;1.50;;;;;;;29.78;30.03;99227.34;1798020;79;20995;-86
2022/07/14 10:38:12;;;;;;;5.37;1.10;;;;;;;29.93;30.05;99224.42;1799503;80;21118;-87
2022/07/14 10:41:08;;;;;;;2.87;1.25;;;;;;;30.01;28.80;99218.27;1786374;80;20966;-86
2022/07/14 10:43:58;;;;;;;3.05;1.47;;;;;;;30.10;28.28;99213.77;1798648;78;20980;-86
2022/07/14 10:46:38;;;;;;;2.85;1.12;;;;;;;30.20;27.85;99209.62;1769110;81;21176;-86
2022/07/14 10:49:08;;;;;;;2.12;1.20;;;;;;;30.23;27.74;99219.53;1793436;80;20974;-86
2022/07/14 10:51:46;;;;;;;3.22;1.20;;;;;;;30.27;26.85;99212.00;1774369;80;21009;-87
2022/07/14 10:54:30;;;;;;;4.90;1.20;;;;;;;30.32;27.27;99213.71;1772608;80;21014;-87
2022/07/14 10:57:13;;;;;;;2.42;1.30;;;;;;;30.47;26.32;99209.41;1800689;78;21030;-86
2022/07/14 10:59:47;;;;;;;2.62;1.40;;;;;;;30.60;26.70;99213.45;1799105;78;21050;-87
2022/07/14 11:02:21;;;;;;;2.98;1.40;;;;;;;30.62;26.62;99206.08;1799520;79;21090;-87
2022/07/14 11:05:08;;;;;;;2.75;1.17;;;;;;;30.63;26.13;99201.90;1800748;80;20973;-85
2022/07/14 11:07:51;;;;;;;3.52;1.20;;;;;;;30.70;25.72;99204.78;1752108;81;21026;-87
2022/07/14 11:10:24;;;;;;;3.45;1.40;;;;;;;30.78;25.62;99198.56;1783711;78;20995;-85
2022/07/14 11:13:09;;;;;;;3.90;1.35;;;;;;;30.80;26.08;99189.84;1770958;78;21025;-87
2022/07/14 11:15:46;;;;;;;3.15;1.37;;;;;;;30.90;26.16;99197.28;1800970;78;20939;-87
2022/07/14 11:18:24;;;;;;;2.37;1.20;;;;;;;30.97;26.37;99191.56;1780697;78;21046;-87
2022/07/14 11:21:07;;;;;;;5.08;1.20;;;;;;;31.04;25.82;99199.81;1813075;78;20986;-87
2022/07/14 11:23:52;;;;;;;2.15;1.30;;;;;;;31.00;25.90;99193.94;1801120;80;21023;-86
2022/07/14 11:26:41;;;;;;;3.10;1.10;;;;;;;31.09;25.09;99184.02;1800731;78;21015;-87
2022/07/14 11:29:11;;;;;;;9.10;1.42;;;;;;;31.11;26.09;99172.61;1759278;81;21028;-86
2022/07/14 11:31:53;;;;;;;3.95;1.30;;;;;;;31.24;26.03;99177.48;1791758;80;20966;-86
2022/07/14 11:37:19;;;;;;;2.02;1.10;;;;;;;31.47;25.08;99168.22;1800838;79;21059;-87
2022/07/14 11:39:46;;;;;;;2.27;1.15;;;;;;;31.60;25.17;99176.59;1800918;79;20979;-87
2022/07/14 11:42:16;;;;;;;3.45;1.10;;;;;;;31.66;24.88;99174.56;1782911;80;21022;-87
2022/07/14 11:44:48;;;;;;;2.67;1.20;;;;;;;31.65;24.01;99177.41;1800851;80;21041;-88
2022/07/14 11:47:22;;;;;;;4.70;1.60;;;;;;;31.63;24.21;99166.00;1769495;80;21090;-85
2022/07/14 11:50:01;;;;;;;6.70;1.20;;;;;;;31.74;24.33;99166.98;1806896;78;20944;-84
2022/07/14 11:52:32;;;;;;;2.95;1.00;;;;;;;31.86;24.08;99164.25;1790099;80;21039;-84
2022/07/14 11:55:08;;;;;;;5.00;1.10;;;;;;;31.96;23.92;99166.73;1782542;79;20961;-86
2022/07/14 11:57:34;;;;;;;1.67;1.00;;;;;;;31.96;24.13;99164.56;1768285;80;20998;-86
2022/07/14 12:00:09;;;;;;;5.55;1.67;;;;;;;32.14;22.91;99165.17;1789884;79;20986;-86
2022/07/14 12:02:57;;;;;;;5.22;1.70;;;;;;;32.15;23.71;99158.76;1786649;79;20999;-84